createdAt,value
2022-09-01T00:02:07.023Z,23.10
2022-09-01T00:06:11.708Z,23.10
2022-09-01T00:10:14.480Z,23.20
2022-09-01T00:14:29.987Z,23.20
2022-09-01T00:18:33.487Z,23.20
2022-09-01T00:22:36.604Z,23.00
2022-09-01T00:26:39.427Z,22.80
2022-09-01T00:30:42.277Z,22.80
2022-09-01T00:34:45.060Z,22.70
2022-09-01T00:38:48.809Z,22.80
2022-09-01T00:42:53.804Z,22.90
2022-09-01T00:46:57.319Z,22.90
2022-09-01T00:51:01.177Z,22.90
2022-09-01T00:55:14.798Z,22.90
2022-09-01T00:59:20.046Z,22.90
2022-09-01T01:03:24.103Z,22.90
2022-09-01T01:07:28.524Z,22.90
2022-09-01T01:11:32.450Z,22.90
2022-09-01T01:15:36.379Z,22.80
2022-09-01T01:20:13.407Z,22.70
2022-09-01T01:24:34.533Z,22.70
2022-09-01T01:28:42.037Z,22.60
2022-09-01T01:32:45.758Z,22.50
2022-09-01T01:36:50.656Z,22.50
2022-09-01T01:40:54.488Z,22.50
2022-09-01T01:44:58.589Z,22.50
2022-09-01T01:49:02.814Z,22.60
2022-09-01T01:53:11.416Z,22.60
2022-09-01T01:57:17.921Z,22.60
2022-09-01T02:01:25.425Z,22.50
2022-09-01T02:05:32.236Z,22.50
2022-09-01T02:09:35.170Z,22.50
2022-09-01T02:13:37.991Z,22.50
2022-09-01T02:17:41.449Z,22.50
2022-09-01T02:21:44.748Z,22.50
2022-09-01T02:26:14.157Z,22.50
2022-09-01T02:30:12.887Z,22.50
2022-09-01T02:34:16.846Z,22.50
2022-09-01T02:38:21.299Z,22.50
2022-09-01T02:42:27.602Z,22.60
2022-09-01T02:46:30.987Z,22.60
2022-09-01T02:50:34.583Z,22.50
2022-09-01T02:54:37.321Z,22.50
2022-09-01T02:58:46.164Z,22.50
2022-09-01T03:02:53.213Z,22.60
2022-09-01T03:06:58.921Z,22.60
2022-09-01T03:11:02.072Z,22.50
2022-09-01T03:15:06.613Z,22.50
2022-09-01T03:19:12.423Z,22.50
2022-09-01T03:23:19.213Z,22.50
2022-09-01T03:27:23.204Z,22.40
2022-09-01T03:31:31.072Z,22.30
2022-09-01T03:35:37.237Z,22.30
2022-09-01T03:39:39.955Z,22.10
2022-09-01T03:43:46.943Z,22.00
2022-09-01T03:47:52.822Z,22.00
2022-09-01T03:51:58.383Z,22.00
2022-09-01T03:56:04.177Z,22.00
2022-09-01T04:00:13.390Z,22.00
2022-09-01T04:04:17.106Z,22.00
2022-09-01T04:08:23.050Z,21.80
2022-09-01T04:12:25.971Z,21.80
2022-09-01T04:16:50.698Z,21.90
2022-09-01T04:20:56.899Z,22.00
2022-09-01T04:25:02.284Z,22.20
2022-09-01T04:29:07.056Z,22.10
2022-09-01T04:33:10.414Z,22.10
2022-09-01T04:37:18.252Z,22.10
2022-09-01T04:41:25.759Z,22.20
2022-09-01T04:45:29.273Z,22.30
2022-09-01T04:49:33.786Z,22.20
2022-09-01T04:53:38.246Z,22.30
2022-09-01T04:57:47.252Z,22.30
2022-09-01T05:01:50.911Z,22.40
2022-09-01T05:05:58.402Z,22.40
2022-09-01T05:10:02.289Z,22.40
2022-09-01T05:14:20.707Z,22.40
2022-09-01T05:18:24.415Z,22.50
2022-09-01T05:22:27.564Z,22.50
2022-09-01T05:26:41.110Z,22.50
2022-09-01T05:30:45.530Z,22.50
2022-09-01T05:34:49.154Z,22.60
2022-09-01T05:38:52.519Z,22.70
2022-09-01T05:42:56.294Z,22.70
2022-09-01T05:47:00.236Z,22.80
2022-09-01T05:51:27.562Z,22.90
2022-09-01T05:55:35.801Z,23.00
2022-09-01T05:59:41.235Z,23.10
2022-09-01T06:03:54.789Z,23.10
2022-09-01T06:08:00.864Z,23.20
2022-09-01T06:12:03.814Z,23.20
2022-09-01T06:16:08.370Z,23.30
2022-09-01T06:20:11.291Z,23.50
2022-09-01T06:24:18.137Z,23.70
2022-09-01T06:28:22.579Z,23.90
2022-09-01T06:32:27.223Z,24.00
2022-09-01T06:36:36.600Z,24.10
2022-09-01T06:40:42.654Z,24.20
2022-09-01T06:44:47.391Z,24.30
2022-09-01T06:48:50.601Z,24.50
2022-09-01T07:12:08.154Z,24.00
2022-09-01T07:19:56.378Z,23.90
2022-09-01T07:24:10.665Z,23.90
2022-09-01T07:28:19.029Z,23.80
2022-09-01T07:39:57.367Z,24.00
2022-09-01T07:45:59.773Z,23.90
2022-09-01T07:50:24.663Z,24.00
2022-09-01T07:54:30.492Z,24.10
2022-09-01T07:58:34.317Z,24.20
2022-09-01T08:02:47.097Z,24.50
2022-09-01T08:06:51.702Z,25.00
2022-09-01T08:11:03.985Z,25.30
2022-09-01T08:19:32.748Z,25.90
2022-09-01T08:23:48.319Z,26.30
2022-09-01T08:27:59.818Z,26.60
2022-09-01T08:32:04.691Z,27.00
2022-09-01T08:36:11.387Z,27.20
2022-09-01T08:40:19.461Z,27.20
2022-09-01T08:44:47.097Z,27.50
2022-09-01T08:49:24.135Z,27.70
2022-09-01T08:54:40.150Z,28.00
2022-09-01T08:58:46.684Z,28.30
2022-09-01T09:03:17.086Z,28.50
2022-09-01T09:07:39.512Z,28.20
2022-09-01T09:12:02.988Z,28.00
2022-09-01T09:16:51.647Z,28.10
2022-09-01T09:21:04.044Z,28.10
2022-09-01T09:25:19.425Z,28.10
2022-09-01T09:29:27.287Z,28.10
2022-09-01T09:33:51.377Z,28.00
2022-09-01T09:37:57.093Z,28.20
2022-09-01T09:42:10.296Z,28.30
2022-09-01T09:46:30.362Z,28.50
2022-09-01T09:50:34.441Z,28.70
2022-09-01T09:55:01.019Z,29.10
2022-09-01T09:59:57.114Z,29.50
2022-09-01T10:04:04.383Z,29.50
2022-09-01T10:08:27.428Z,29.80
2022-09-01T10:12:32.477Z,30.20
2022-09-01T10:16:40.361Z,30.00
2022-09-01T10:21:00.714Z,30.00
2022-09-01T10:25:13.724Z,30.20
2022-09-01T10:29:27.355Z,30.70
2022-09-01T10:33:30.202Z,30.90
2022-09-01T10:37:34.503Z,30.80
2022-09-01T10:42:00.709Z,30.80
2022-09-01T10:46:26.223Z,30.90
2022-09-01T10:50:35.374Z,30.90
2022-09-01T10:54:51.309Z,30.80
2022-09-01T10:59:35.586Z,30.60
2022-09-01T11:03:57.458Z,30.30
2022-09-01T11:08:20.580Z,30.00
2022-09-01T11:12:46.304Z,29.60
2022-09-01T11:17:14.382Z,29.40
2022-09-01T11:21:33.238Z,29.40
2022-09-01T11:25:45.392Z,29.10
2022-09-01T11:30:09.710Z,29.10
2022-09-01T11:34:21.275Z,29.30
2022-09-01T11:38:25.677Z,29.50
2022-09-01T11:42:43.727Z,29.50
2022-09-01T11:46:51.985Z,29.60
2022-09-01T11:51:01.778Z,29.70
2022-09-01T11:55:06.963Z,29.90
2022-09-01T11:59:09.888Z,29.90
2022-09-01T12:03:29.982Z,30.00
2022-09-01T12:07:45.058Z,30.20
2022-09-01T12:11:48.971Z,30.70
2022-09-01T12:16:18.462Z,30.70
2022-09-01T12:20:32.535Z,30.20
2022-09-01T12:24:37.116Z,29.20
2022-09-01T12:28:41.814Z,28.20
2022-09-01T12:32:44.821Z,27.00
2022-09-01T12:37:05.090Z,26.00
2022-09-01T12:41:35.398Z,25.50
2022-09-01T12:45:41.163Z,24.80
2022-09-01T12:49:50.821Z,24.50
2022-09-01T12:54:04.885Z,24.40
2022-09-01T12:58:09.871Z,24.40
2022-09-01T13:02:37.846Z,24.30
2022-09-01T13:06:40.905Z,24.40
2022-09-01T13:10:47.545Z,24.20
2022-09-01T13:14:51.389Z,24.20
2022-09-01T13:19:11.087Z,24.40
2022-09-01T13:23:14.457Z,24.50
2022-09-01T13:27:21.088Z,24.70
2022-09-01T13:31:32.490Z,24.90
2022-09-01T13:35:35.706Z,25.30
2022-09-01T13:39:38.427Z,25.60
2022-09-01T13:43:41.450Z,25.70
2022-09-01T13:52:13.161Z,26.30
2022-09-01T13:56:16.094Z,26.70
2022-09-01T14:00:24.290Z,26.90
2022-09-01T14:04:28.311Z,26.80
2022-09-01T14:08:31.431Z,26.80
2022-09-01T14:12:34.853Z,26.70
2022-09-01T14:16:41.437Z,26.80
2022-09-01T14:20:48.949Z,26.70
2022-09-01T14:24:52.535Z,26.60
2022-09-01T14:28:56.014Z,26.70
2022-09-01T14:33:00.979Z,26.80
2022-09-01T14:37:05.037Z,26.80
2022-09-01T14:41:07.716Z,26.70
2022-09-01T14:45:16.054Z,26.70
2022-09-01T14:49:22.458Z,26.70
2022-09-01T14:53:25.475Z,26.60
2022-09-01T14:57:37.007Z,26.60
2022-09-01T15:01:40.860Z,26.70
2022-09-01T15:05:43.605Z,26.60
2022-09-01T15:09:46.665Z,26.50
2022-09-01T15:13:52.164Z,26.40
2022-09-01T15:17:56.378Z,26.30
2022-09-01T15:21:59.844Z,26.30
2022-09-01T15:26:03.273Z,26.30
2022-09-01T15:30:13.147Z,26.40
2022-09-01T15:34:18.192Z,26.30
2022-09-01T15:38:21.306Z,26.30
2022-09-01T15:42:24.279Z,26.40
2022-09-01T15:46:33.848Z,26.30
2022-09-01T15:50:36.769Z,26.20
2022-09-01T15:54:39.791Z,26.10
2022-09-01T15:59:00.101Z,26.10
2022-09-01T16:03:04.630Z,26.40
2022-09-01T16:07:08.081Z,26.80
2022-09-01T16:11:14.001Z,27.20
2022-09-01T16:15:20.254Z,27.50
2022-09-01T16:19:47.241Z,27.90
2022-09-01T16:23:52.136Z,27.90
2022-09-01T16:27:56.292Z,28.00
2022-09-01T16:32:01.509Z,28.00
2022-09-01T16:36:24.479Z,28.40
2022-09-01T16:40:56.489Z,28.30
2022-09-01T16:45:12.603Z,28.20
2022-09-01T16:49:32.723Z,28.30
2022-09-01T16:53:50.187Z,28.40
2022-09-01T16:58:31.785Z,29.00
2022-09-01T17:02:49.893Z,29.80
2022-09-01T17:06:52.899Z,30.10
2022-09-01T17:11:14.943Z,29.50
2022-09-01T17:15:24.157Z,28.80
2022-09-01T17:19:28.096Z,28.10
2022-09-01T17:23:38.020Z,27.50
2022-09-01T17:28:02.201Z,27.00
2022-09-01T17:32:50.568Z,26.70
2022-09-01T17:37:23.288Z,26.30
2022-09-01T17:42:11.504Z,25.90
2022-09-01T17:46:34.387Z,25.50
2022-09-01T17:50:37.335Z,25.30
2022-09-01T17:55:00.446Z,25.00
2022-09-01T17:59:33.967Z,24.90
2022-09-01T18:04:06.155Z,24.70
2022-09-01T18:08:20.016Z,24.50
2022-09-01T18:12:29.086Z,24.30
2022-09-01T18:16:43.634Z,24.20
2022-09-01T18:20:48.754Z,24.10
2022-09-01T18:25:09.208Z,24.00
2022-09-01T18:29:15.312Z,23.90
2022-09-01T18:33:49.318Z,23.70
2022-09-01T18:38:16.497Z,23.70
2022-09-01T18:42:38.742Z,23.50
2022-09-01T18:46:56.522Z,23.40
2022-09-01T18:51:30.329Z,23.30
2022-09-01T18:55:36.008Z,23.30
2022-09-01T18:59:47.712Z,23.20
2022-09-01T19:04:16.465Z,23.10
2022-09-01T19:08:56.834Z,23.10
2022-09-01T19:13:18.082Z,23.10
2022-09-01T19:17:39.381Z,23.00
2022-09-01T19:21:44.484Z,23.00
2022-09-01T19:25:48.375Z,23.00
2022-09-01T19:29:59.425Z,22.90
2022-09-01T19:34:18.229Z,23.00
2022-09-01T19:38:27.775Z,22.90
2022-09-01T19:42:40.181Z,22.80
2022-09-01T19:47:00.293Z,22.80
2022-09-01T19:51:29.721Z,22.80
2022-09-01T19:55:37.403Z,22.70
2022-09-01T19:59:47.495Z,22.50
2022-09-01T20:03:55.917Z,22.60
2022-09-01T20:08:01.804Z,22.50
2022-09-01T20:12:21.902Z,22.50
2022-09-01T20:16:35.425Z,22.50
2022-09-01T20:20:45.198Z,22.40
2022-09-01T20:24:47.929Z,22.40
2022-09-01T20:29:46.006Z,22.40
2022-09-01T20:34:08.013Z,22.40
2022-09-01T20:38:48.074Z,22.30
2022-09-01T20:43:12.638Z,22.30
2022-09-01T20:47:15.505Z,22.20
2022-09-01T20:51:38.452Z,22.20
2022-09-01T20:55:53.852Z,22.20
2022-09-01T21:00:02.557Z,22.10
2022-09-01T21:04:30.185Z,22.10
2022-09-01T21:08:45.146Z,22.00
2022-09-01T21:12:52.949Z,22.00
2022-09-01T21:17:00.446Z,21.90
2022-09-01T21:21:36.173Z,21.90
2022-09-01T21:25:59.291Z,21.80
2022-09-01T21:30:14.844Z,21.80
2022-09-01T21:34:17.590Z,21.70
2022-09-01T21:38:20.365Z,21.70
2022-09-01T21:43:08.491Z,21.70
2022-09-01T21:47:13.129Z,21.70
2022-09-01T21:51:15.862Z,21.60
2022-09-01T21:55:23.350Z,21.60
2022-09-01T21:59:26.813Z,21.50
2022-09-01T22:03:31.159Z,21.50
2022-09-01T22:07:38.870Z,21.50
2022-09-01T22:11:42.404Z,21.50
2022-09-01T22:15:48.287Z,21.50
2022-09-01T22:19:52.939Z,21.50
2022-09-01T22:23:55.657Z,21.40
2022-09-01T22:28:00.560Z,21.40
2022-09-01T22:32:04.135Z,21.30
2022-09-01T22:36:07.570Z,21.20
2022-09-01T22:40:11.890Z,21.20
2022-09-01T22:44:14.641Z,21.20
2022-09-01T22:48:19.280Z,21.10
2022-09-01T22:52:47.215Z,21.10
2022-09-01T22:56:52.732Z,21.10
2022-09-01T23:01:00.820Z,21.00
2022-09-01T23:05:06.233Z,21.00
2022-09-01T23:09:09.181Z,21.00
2022-09-01T23:13:11.872Z,21.00
2022-09-01T23:17:14.960Z,21.00
2022-09-01T23:21:21.039Z,21.00
2022-09-01T23:25:24.447Z,20.90
2022-09-01T23:29:27.201Z,20.80
2022-09-01T23:33:31.953Z,20.80
2022-09-01T23:37:34.799Z,20.80
2022-09-01T23:41:38.729Z,20.70
2022-09-01T23:45:43.817Z,20.70
2022-09-01T23:49:46.588Z,20.70
2022-09-01T23:53:49.529Z,20.60
2022-09-01T23:57:52.333Z,20.70
